Time;durP1;ratioP1;P1;durP2;ratioP2;P2;SDS_P1;SDS_P2;PMS_P1;PMS_P2;Temp;Humidity;BMP_temperature;BMP_pressure;BME280_temperature;BME280_humidity;BME280_pressure;Samples;Min_cycle;Max_cycle;Signal;HPM_P1;HPM_P2
2022/01/22 00:00:28;;;;;;;3.53;1.60;;;;;;;;;;5087519;28;20051;-67
2022/01/22 00:02:54;;;;;;;4.57;1.85;;;;;;;;;;5089075;28;20047;-67
2022/01/22 00:05:20;;;;;;;2.63;1.65;;;;;;;;;;5087640;28;20047;-67
2022/01/22 00:07:45;;;;;;;2.13;1.60;;;;;;;;;;5070780;28;20080;-67
2022/01/22 00:10:15;;;;;;;3.00;1.58;;;;;;;;;;5087376;28;20270;-67
2022/01/22 00:15:28;;;;;;;2.72;1.45;;;;;;;;;;5046316;28;20032;-67
2022/01/22 00:17:53;;;;;;;4.07;1.50;;;;;;;;;;5088552;28;20016;-67
2022/01/22 00:20:20;;;;;;;4.15;1.83;;;;;;;;;;5088640;28;20031;-67
2022/01/22 00:22:45;;;;;;;4.47;1.52;;;;;;;;;;5087709;28;20030;-67
2022/01/22 00:25:11;;;;;;;1.98;1.30;;;;;;;;;;5087563;28;20107;-67
2022/01/22 00:27:40;;;;;;;12.80;2.20;;;;;;;;;;5070289;28;20020;-67
2022/01/22 00:30:07;;;;;;;2.97;1.35;;;;;;;;;;5087771;28;20062;-67
2022/01/22 00:32:33;;;;;;;4.82;1.52;;;;;;;;;;5086800;28;20056;-67
2022/01/22 00:34:58;;;;;;;5.70;1.77;;;;;;;;;;5087574;28;20048;-67
2022/01/22 00:37:23;;;;;;;1.63;1.17;;;;;;;;;;5088250;28;20031;-67
2022/01/22 00:39:49;;;;;;;7.15;1.80;;;;;;;;;;5087415;28;20024;-67
2022/01/22 00:42:16;;;;;;;2.92;1.48;;;;;;;;;;5088654;28;20103;-67
2022/01/22 00:44:41;;;;;;;3.28;1.40;;;;;;;;;;5070477;28;20035;-67
2022/01/22 00:47:06;;;;;;;4.40;1.23;;;;;;;;;;5088386;28;20020;-66
2022/01/22 00:49:32;;;;;;;3.83;1.83;;;;;;;;;;5086580;28;20016;-67
2022/01/22 00:51:57;;;;;;;3.42;1.50;;;;;;;;;;5089412;28;20016;-67
2022/01/22 00:54:23;;;;;;;2.53;1.50;;;;;;;;;;5090347;28;20103;-67
2022/01/22 00:56:48;;;;;;;5.28;1.77;;;;;;;;;;5091646;28;20486;-67
2022/01/22 00:59:13;;;;;;;6.85;2.22;;;;;;;;;;5092216;28;20027;-66
2022/01/22 01:01:39;;;;;;;2.17;1.30;;;;;;;;;;5089892;28;20047;-67
2022/01/22 01:04:04;;;;;;;3.85;1.75;;;;;;;;;;5091816;28;20030;-67
2022/01/22 01:06:30;;;;;;;2.92;1.50;;;;;;;;;;5091961;28;20020;-66
2022/01/22 01:08:55;;;;;;;7.68;1.48;;;;;;;;;;5090250;28;20192;-67
2022/01/22 01:11:23;;;;;;;3.58;1.40;;;;;;;;;;5073067;28;20685;-67
2022/01/22 01:13:55;;;;;;;3.78;1.58;;;;;;;;;;5092053;28;20507;-67
2022/01/22 01:16:42;;;;;;;3.78;1.50;;;;;;;;;;5091260;28;20024;-67
2022/01/22 01:32:59;;;;;;;2.70;1.67;;;;;;;;;;5090297;28;20042;-67
2022/01/22 01:35:29;;;;;;;5.15;1.50;;;;;;;;;;5091155;28;20545;-67
2022/01/22 01:37:57;;;;;;;6.95;1.88;;;;;;;;;;5073217;28;20478;-67
2022/01/22 01:40:24;;;;;;;1.70;1.48;;;;;;;;;;5090960;28;20024;-67
2022/01/22 01:43:17;;;;;;;2.85;1.50;;;;;;;;;;5090012;28;20020;-67
2022/01/22 01:45:42;;;;;;;6.10;1.42;;;;;;;;;;5073360;28;20084;-67
2022/01/22 01:48:13;;;;;;;3.10;1.30;;;;;;;;;;5090689;28;20584;-66
2022/01/22 01:50:41;;;;;;;6.13;1.92;;;;;;;;;;5091054;28;20028;-67
2022/01/22 01:53:16;;;;;;;2.28;1.40;;;;;;;;;;5090880;28;20036;-67
2022/01/22 01:58:22;;;;;;;5.38;1.55;;;;;;;;;;5089738;28;20439;-67
2022/01/22 02:00:47;;;;;;;6.63;1.33;;;;;;;;;;5087894;28;20035;-66
2022/01/22 02:03:13;;;;;;;1.65;1.30;;;;;;;;;;5089104;28;20055;-67
2022/01/22 02:05:39;;;;;;;2.55;1.38;;;;;;;;;;5089614;28;20051;-67
2022/01/22 02:08:05;;;;;;;6.07;1.50;;;;;;;;;;5089102;28;20020;-66
2022/01/22 02:10:34;;;;;;;2.35;1.30;;;;;;;;;;5072350;28;20035;-67
2022/01/22 02:23:52;;;;;;;1.20;1.10;;;;;;;;;;5090030;28;20156;-67
2022/01/22 02:26:18;;;;;;;4.75;1.45;;;;;;;;;;5072351;28;20024;-67
2022/01/22 02:28:50;;;;;;;3.15;1.55;;;;;;;;;;5089901;28;20056;-67
2022/01/22 02:34:45;;;;;;;5.13;1.38;;;;;;;;;;5090488;28;20093;-67
2022/01/22 02:37:03;;;;;;;5.63;1.45;;;;;;;;;;5071281;28;20736;-67
2022/01/22 02:39:39;;;;;;;3.38;1.30;;;;;;;;;;5089040;28;20028;-67
2022/01/22 02:42:05;;;;;;;4.78;1.40;;;;;;;;;;5090235;28;20466;-67
2022/01/22 02:44:45;;;;;;;2.58;1.30;;;;;;;;;;5089446;28;20702;-67
2022/01/22 02:47:10;;;;;;;2.58;1.48;;;;;;;;;;5089863;28;20422;-67
2022/01/22 02:49:36;;;;;;;5.82;1.40;;;;;;;;;;5089436;28;20027;-67
2022/01/22 02:52:07;;;;;;;4.03;1.55;;;;;;;;;;5054934;28;20028;-67
2022/01/22 02:54:33;;;;;;;3.20;1.17;;;;;;;;;;5088557;28;20036;-67
2022/01/22 02:56:58;;;;;;;2.45;1.40;;;;;;;;;;5071477;28;20101;-67
2022/01/22 02:59:23;;;;;;;5.70;1.58;;;;;;;;;;5088692;28;20470;-67
2022/01/22 03:01:52;;;;;;;2.95;1.20;;;;;;;;;;5088526;28;20085;-67
2022/01/22 03:04:18;;;;;;;1.88;1.27;;;;;;;;;;5088351;28;20535;-67
2022/01/22 03:06:43;;;;;;;2.83;1.20;;;;;;;;;;5074223;28;20024;-71
2022/01/22 03:09:11;;;;;;;2.13;1.10;;;;;;;;;;5060381;28;20032;-71
2022/01/22 03:11:46;;;;;;;3.03;1.30;;;;;;;;;;5065484;28;20069;-72
2022/01/22 03:17:25;;;;;;;1.58;0.88;;;;;;;;;;5061035;28;20064;-72
2022/01/22 03:22:27;;;;;;;3.10;1.13;;;;;;;;;;5060483;28;20082;-72
2022/01/22 03:27:37;;;;;;;3.78;1.20;;;;;;;;;;5059385;28;20261;-72
2022/01/22 03:30:03;;;;;;;4.70;1.15;;;;;;;;;;5044819;28;20029;-72
2022/01/22 03:32:35;;;;;;;3.17;1.10;;;;;;;;;;5059833;28;20171;-71
2022/01/22 03:37:40;;;;;;;2.33;1.08;;;;;;;;;;5044820;28;20039;-71
2022/01/22 03:40:07;;;;;;;2.30;0.93;;;;;;;;;;5044667;28;20895;-72
2022/01/22 03:42:34;;;;;;;2.85;1.20;;;;;;;;;;5063604;28;20028;-72
2022/01/22 03:44:59;;;;;;;3.78;1.10;;;;;;;;;;5046774;28;20047;-71
2022/01/22 03:47:25;;;;;;;1.77;1.02;;;;;;;;;;5059849;28;20066;-72
2022/01/22 03:49:50;;;;;;;10.85;1.40;;;;;;;;;;5065235;28;20040;-71
2022/01/22 03:52:17;;;;;;;2.63;1.13;;;;;;;;;;5061646;28;20025;-72
2022/01/22 03:54:42;;;;;;;3.35;0.90;;;;;;;;;;5060171;28;20033;-71
2022/01/22 03:57:09;;;;;;;3.80;1.02;;;;;;;;;;5061080;28;20044;-72
2022/01/22 03:59:34;;;;;;;1.77;0.90;;;;;;;;;;5060900;28;20364;-71
2022/01/22 04:04:36;;;;;;;2.50;1.20;;;;;;;;;;5061243;28;20060;-72
2022/01/22 04:07:31;;;;;;;2.90;1.30;;;;;;;;;;5043977;28;20029;-72
2022/01/22 04:09:47;;;;;;;2.88;0.85;;;;;;;;;;5061592;28;20033;-71
2022/01/22 04:12:15;;;;;;;1.48;1.00;;;;;;;;;;5044452;28;20021;-71
2022/01/22 04:14:54;;;;;;;3.08;1.20;;;;;;;;;;5045124;28;20033;-72
2022/01/22 04:17:39;;;;;;;2.45;0.80;;;;;;;;;;5047383;28;20111;-71
2022/01/22 04:25:37;;;;;;;1.90;0.80;;;;;;;;;;5061534;28;19970;-72
2022/01/22 04:28:02;;;;;;;1.40;0.80;;;;;;;;;;5029882;28;20021;-71
2022/01/22 04:30:28;;;;;;;1.95;1.00;;;;;;;;;;5048090;28;20373;-72
2022/01/22 04:32:53;;;;;;;2.63;1.10;;;;;;;;;;5051177;28;20056;-72
2022/01/22 04:35:19;;;;;;;2.10;1.40;;;;;;;;;;5050275;28;20091;-71
2022/01/22 04:37:47;;;;;;;1.58;0.88;;;;;;;;;;5047365;28;20078;-72
2022/01/22 04:40:13;;;;;;;4.05;0.93;;;;;;;;;;5035171;28;20678;-71
2022/01/22 04:42:40;;;;;;;2.60;1.00;;;;;;;;;;5064188;28;20039;-71
2022/01/22 04:45:43;;;;;;;0.60;0.60;;;;;;;;;;5030654;28;20552;-71
2022/01/22 04:48:08;;;;;;;2.47;1.00;;;;;;;;;;5062845;28;20072;-72
2022/01/22 04:55:43;;;;;;;2.75;0.85;;;;;;;;;;5050966;28;20024;-72
2022/01/22 04:58:08;;;;;;;1.55;0.82;;;;;;;;;;5065873;28;20048;-72
2022/01/22 05:00:35;;;;;;;3.60;1.42;;;;;;;;;;5066744;28;20606;-71
2022/01/22 05:03:01;;;;;;;3.33;1.20;;;;;;;;;;5032527;28;20514;-71
2022/01/22 05:05:27;;;;;;;3.70;1.27;;;;;;;;;;5049786;28;20088;-71
2022/01/22 05:07:52;;;;;;;2.08;1.00;;;;;;;;;;5047977;28;20099;-71
2022/01/22 05:10:18;;;;;;;3.25;1.27;;;;;;;;;;5065964;28;20598;-71
2022/01/22 05:12:43;;;;;;;3.35;1.52;;;;;;;;;;5048971;28;20016;-72
2022/01/22 05:15:08;;;;;;;4.07;1.40;;;;;;;;;;5032293;28;20704;-71
2022/01/22 05:17:37;;;;;;;1.83;1.30;;;;;;;;;;5066463;28;20024;-71
2022/01/22 05:20:44;;;;;;;2.55;1.20;;;;;;;;;;5064749;28;20029;-71
2022/01/22 05:23:06;;;;;;;2.03;1.70;;;;;;;;;;5061982;28;20044;-71
2022/01/22 05:25:37;;;;;;;1.30;1.20;;;;;;;;;;5065636;28;20021;-72
2022/01/22 05:30:57;;;;;;;4.15;1.30;;;;;;;;;;5064965;28;20094;-72
2022/01/22 05:36:56;;;;;;;3.17;1.50;;;;;;;;;;5069853;28;20510;-72
2022/01/22 05:39:06;;;;;;;2.35;1.60;;;;;;;;;;5051887;28;20036;-71
2022/01/22 05:41:31;;;;;;;1.52;1.42;;;;;;;;;;5050403;28;20028;-72
2022/01/22 05:43:57;;;;;;;1.67;1.25;;;;;;;;;;5048403;28;20371;-71
2022/01/22 05:46:22;;;;;;;1.48;1.20;;;;;;;;;;5066624;28;20021;-72
2022/01/22 05:48:47;;;;;;;1.92;1.20;;;;;;;;;;5065097;28;20028;-72
2022/01/22 05:51:14;;;;;;;1.30;1.20;;;;;;;;;;5065804;28;20024;-71
2022/01/22 05:54:15;;;;;;;1.48;1.20;;;;;;;;;;5064540;28;20040;-72
2022/01/22 06:01:53;;;;;;;2.97;1.20;;;;;;;;;;5050044;28;20070;-72
2022/01/22 06:04:18;;;;;;;2.83;1.42;;;;;;;;;;5049068;28;20536;-72
2022/01/22 06:06:44;;;;;;;3.58;1.50;;;;;;;;;;5049865;28;20040;-72
2022/01/22 06:09:10;;;;;;;3.85;1.40;;;;;;;;;;5046993;28;20712;-71
2022/01/22 06:11:53;;;;;;;4.35;1.67;;;;;;;;;;5067611;28;20028;-71
2022/01/22 06:14:19;;;;;;;1.38;1.27;;;;;;;;;;5052300;28;20460;-71
2022/01/22 06:16:44;;;;;;;1.25;1.15;;;;;;;;;;5064086;28;20036;-72
2022/01/22 06:19:10;;;;;;;1.88;1.33;;;;;;;;;;5047249;28;20066;-72
2022/01/22 06:21:35;;;;;;;2.90;1.40;;;;;;;;;;5065068;28;20155;-72
2022/01/22 06:24:00;;;;;;;2.38;1.40;;;;;;;;;;5066316;28;20474;-72
2022/01/22 06:26:26;;;;;;;3.83;1.45;;;;;;;;;;5046722;28;20028;-73
2022/01/22 06:28:51;;;;;;;2.15;1.45;;;;;;;;;;5061567;28;20029;-73
2022/01/22 06:31:16;;;;;;;1.85;1.30;;;;;;;;;;5050258;28;20037;-72
2022/01/22 06:33:41;;;;;;;1.40;1.30;;;;;;;;;;5063131;28;20021;-71
2022/01/22 06:36:07;;;;;;;2.67;1.63;;;;;;;;;;5063226;28;20032;-72
2022/01/22 06:38:33;;;;;;;1.75;1.65;;;;;;;;;;5046700;28;20024;-72
2022/01/22 06:43:42;;;;;;;2.58;2.13;;;;;;;;;;5062771;28;20046;-72
2022/01/22 06:46:07;;;;;;;5.57;4.43;;;;;;;;;;5061636;28;20028;-72
2022/01/22 06:48:33;;;;;;;3.55;2.08;;;;;;;;;;5064409;28;20060;-72
2022/01/22 06:50:59;;;;;;;13.40;7.25;;;;;;;;;;5063683;28;20143;-72
2022/01/22 06:53:24;;;;;;;4.65;3.53;;;;;;;;;;5060896;28;20033;-72
2022/01/22 06:55:56;;;;;;;18.02;6.35;;;;;;;;;;5064067;28;20032;-72
2022/01/22 06:58:22;;;;;;;7.22;3.95;;;;;;;;;;5071312;28;20088;-71
2022/01/22 07:00:47;;;;;;;10.15;3.83;;;;;;;;;;5053091;28;20040;-68
2022/01/22 07:03:12;;;;;;;12.07;7.35;;;;;;;;;;5070003;28;20016;-68
2022/01/22 07:05:38;;;;;;;4.25;3.10;;;;;;;;;;5066179;28;20054;-68
2022/01/22 07:08:03;;;;;;;4.22;3.72;;;;;;;;;;5051713;28;20024;-68
2022/01/22 07:10:28;;;;;;;4.38;2.97;;;;;;;;;;5065185;28;20017;-68
2022/01/22 07:12:54;;;;;;;3.85;2.05;;;;;;;;;;5070043;28;20446;-68
2022/01/22 07:15:20;;;;;;;3.63;2.28;;;;;;;;;;5069902;28;20378;-68
2022/01/22 07:17:46;;;;;;;4.78;2.65;;;;;;;;;;5069575;28;20072;-68
2022/01/22 07:20:18;;;;;;;5.65;3.50;;;;;;;;;;5068072;28;20052;-68
2022/01/22 07:23:00;;;;;;;3.00;2.45;;;;;;;;;;5068618;28;20013;-68
2022/01/22 07:25:25;;;;;;;5.10;2.42;;;;;;;;;;5064250;28;20892;-68
2022/01/22 07:27:50;;;;;;;3.97;2.90;;;;;;;;;;5062524;28;20024;-68
2022/01/22 07:30:16;;;;;;;3.75;3.22;;;;;;;;;;5063125;28;20024;-68
2022/01/22 07:32:43;;;;;;;4.90;2.80;;;;;;;;;;5045762;28;20062;-68
2022/01/22 07:35:10;;;;;;;2.95;2.45;;;;;;;;;;5069729;28;20031;-68
2022/01/22 07:37:38;;;;;;;4.93;3.00;;;;;;;;;;5049871;28;20031;-68
2022/01/22 07:40:07;;;;;;;4.18;2.63;;;;;;;;;;5051151;28;20049;-68
2022/01/22 07:42:33;;;;;;;4.45;2.65;;;;;;;;;;5066232;28;20073;-68
2022/01/22 07:44:58;;;;;;;3.72;2.65;;;;;;;;;;5049657;28;20028;-68
2022/01/22 07:47:23;;;;;;;3.08;2.50;;;;;;;;;;5065515;28;20115;-68
2022/01/22 07:49:49;;;;;;;2.92;2.33;;;;;;;;;;5056462;28;20029;-68
2022/01/22 07:52:14;;;;;;;2.47;2.28;;;;;;;;;;5065886;28;20508;-68
2022/01/22 07:54:39;;;;;;;6.80;2.60;;;;;;;;;;5060540;28;20786;-68
2022/01/22 07:57:05;;;;;;;2.83;2.15;;;;;;;;;;5069481;28;20403;-68
2022/01/22 07:59:30;;;;;;;2.53;2.30;;;;;;;;;;5065223;28;20025;-68
2022/01/22 08:01:56;;;;;;;4.85;2.40;;;;;;;;;;5065056;28;20471;-68
2022/01/22 08:04:24;;;;;;;8.57;2.38;;;;;;;;;;5053974;28;20115;-68
2022/01/22 08:06:49;;;;;;;4.20;2.42;;;;;;;;;;5075197;28;20028;-68
2022/01/22 08:09:15;;;;;;;4.10;2.65;;;;;;;;;;5071694;28;20119;-68
2022/01/22 08:11:40;;;;;;;4.28;2.30;;;;;;;;;;5052835;28;20483;-68
2022/01/22 08:14:09;;;;;;;3.15;2.75;;;;;;;;;;5072537;28;20025;-68
2022/01/22 08:16:34;;;;;;;3.42;2.53;;;;;;;;;;5066532;28;20025;-68
2022/01/22 08:18:59;;;;;;;2.80;2.60;;;;;;;;;;5057592;28;20020;-68
2022/01/22 08:21:25;;;;;;;4.43;2.67;;;;;;;;;;5055418;28;20035;-68
2022/01/22 08:23:50;;;;;;;3.65;2.70;;;;;;;;;;5035087;28;20025;-68
2022/01/22 08:26:20;;;;;;;5.28;2.60;;;;;;;;;;5057540;28;20031;-68
2022/01/22 08:28:55;;;;;;;5.50;3.25;;;;;;;;;;5058258;28;20028;-68
2022/01/22 08:36:32;;;;;;;5.03;3.13;;;;;;;;;;5056868;28;20040;-68
2022/01/22 08:38:58;;;;;;;3.97;2.95;;;;;;;;;;5053349;28;20269;-68
2022/01/22 08:41:23;;;;;;;6.50;3.90;;;;;;;;;;5070698;28;20020;-68
2022/01/22 08:43:48;;;;;;;5.60;3.38;;;;;;;;;;5054016;28;20165;-68
2022/01/22 08:46:14;;;;;;;8.23;4.63;;;;;;;;;;5054344;28;20131;-68
2022/01/22 08:48:39;;;;;;;8.82;3.60;;;;;;;;;;5067789;28;20116;-68
2022/01/22 08:51:06;;;;;;;6.35;3.60;;;;;;;;;;5068585;28;20114;-68
2022/01/22 08:53:32;;;;;;;3.90;3.50;;;;;;;;;;5073178;28;20024;-68
2022/01/22 08:56:00;;;;;;;3.45;3.03;;;;;;;;;;5074670;28;20032;-69
2022/01/22 08:58:25;;;;;;;3.72;2.72;;;;;;;;;;5070903;28;20036;-68
2022/01/22 09:00:51;;;;;;;5.28;3.83;;;;;;;;;;5072610;28;20036;-68
2022/01/22 09:03:19;;;;;;;3.88;3.35;;;;;;;;;;5049959;28;20051;-68
2022/01/22 09:05:46;;;;;;;4.55;3.08;;;;;;;;;;5055193;28;20122;-68
2022/01/22 09:08:11;;;;;;;6.68;4.32;;;;;;;;;;5068310;28;20031;-68
2022/01/22 09:10:37;;;;;;;4.10;3.70;;;;;;;;;;5066951;28;20107;-69
2022/01/22 09:13:02;;;;;;;7.32;4.15;;;;;;;;;;5044423;28;20031;-69
2022/01/22 09:15:27;;;;;;;6.50;4.43;;;;;;;;;;5044880;28;20029;-69
2022/01/22 09:17:53;;;;;;;3.70;3.20;;;;;;;;;;5065016;28;20032;-69
2022/01/22 09:23:07;;;;;;;3.40;3.10;;;;;;;;;;5060901;28;20643;-69
2022/01/22 09:25:32;;;;;;;3.45;2.88;;;;;;;;;;5045815;28;20028;-69
2022/01/22 09:27:58;;;;;;;4.85;3.08;;;;;;;;;;5042776;28;20039;-69
2022/01/22 09:30:24;;;;;;;4.43;3.40;;;;;;;;;;5065138;28;20043;-69
2022/01/22 09:32:50;;;;;;;6.00;3.78;;;;;;;;;;5066211;28;20486;-69
2022/01/22 09:35:16;;;;;;;4.40;4.00;;;;;;;;;;5064040;28;20520;-68
2022/01/22 09:37:41;;;;;;;4.80;3.67;;;;;;;;;;5060955;28;20060;-68
2022/01/22 09:40:07;;;;;;;4.57;3.20;;;;;;;;;;5063829;28;20031;-69
2022/01/22 09:42:32;;;;;;;5.47;3.92;;;;;;;;;;5047355;28;20103;-69
2022/01/22 09:44:58;;;;;;;6.25;3.45;;;;;;;;;;5048706;28;20045;-69
2022/01/22 09:47:23;;;;;;;4.75;2.95;;;;;;;;;;5064205;28;20019;-69
2022/01/22 09:49:48;;;;;;;7.28;3.72;;;;;;;;;;5050240;28;21184;-69
2022/01/22 09:52:14;;;;;;;4.97;3.40;;;;;;;;;;5046995;28;20063;-69
2022/01/22 09:54:39;;;;;;;5.78;3.40;;;;;;;;;;5068104;28;20068;-69
2022/01/22 09:57:05;;;;;;;8.30;3.50;;;;;;;;;;5049526;28;20470;-69
2022/01/22 09:59:31;;;;;;;4.30;3.55;;;;;;;;;;5045627;28;20028;-69
2022/01/22 10:02:07;;;;;;;4.80;3.40;;;;;;;;;;5042569;28;20044;-69
2022/01/22 10:04:36;;;;;;;3.60;3.25;;;;;;;;;;5031295;28;20434;-69
2022/01/22 10:07:02;;;;;;;6.68;3.80;;;;;;;;;;5039469;28;20033;-69
2022/01/22 10:09:34;;;;;;;6.85;3.67;;;;;;;;;;5041318;28;20078;-69
2022/01/22 10:12:09;;;;;;;4.57;3.75;;;;;;;;;;5030998;28;20517;-71
2022/01/22 10:14:34;;;;;;;8.40;4.53;;;;;;;;;;5043274;28;20032;-69
2022/01/22 10:17:00;;;;;;;5.13;3.53;;;;;;;;;;5059735;28;20470;-69
2022/01/22 10:19:25;;;;;;;8.10;4.25;;;;;;;;;;5052732;28;20039;-69
2022/01/22 10:21:57;;;;;;;5.05;3.75;;;;;;;;;;5064707;28;20036;-69
2022/01/22 10:24:46;;;;;;;5.57;3.70;;;;;;;;;;5063211;28;20030;-69
2022/01/22 10:27:44;;;;;;;6.40;4.20;;;;;;;;;;5063185;28;20067;-69
2022/01/22 10:30:16;;;;;;;6.97;4.55;;;;;;;;;;5065272;28;20063;-68
2022/01/22 10:35:18;;;;;;;6.90;3.90;;;;;;;;;;5047679;28;20491;-69
2022/01/22 10:37:44;;;;;;;4.65;3.53;;;;;;;;;;5048488;28;20028;-69
2022/01/22 10:40:37;;;;;;;4.65;3.20;;;;;;;;;;5047157;28;20378;-69
2022/01/22 10:46:07;;;;;;;4.53;3.22;;;;;;;;;;5044833;28;20118;-69
2022/01/22 10:48:32;;;;;;;5.47;3.90;;;;;;;;;;5059074;28;20060;-68
2022/01/22 10:51:05;;;;;;;5.10;3.88;;;;;;;;;;5046765;28;20117;-69
2022/01/22 10:53:44;;;;;;;17.48;8.57;;;;;;;;;;5031987;28;20034;-69
2022/01/22 10:56:14;;;;;;;10.18;6.10;;;;;;;;;;5045904;28;20071;-69
2022/01/22 10:59:02;;;;;;;5.70;3.95;;;;;;;;;;5045818;28;20161;-69
2022/01/22 11:01:51;;;;;;;7.93;4.63;;;;;;;;;;5045977;28;20043;-69
2022/01/22 11:04:29;;;;;;;9.82;3.92;;;;;;;;;;5030184;28;20495;-69
2022/01/22 11:07:02;;;;;;;8.90;4.30;;;;;;;;;;5049873;28;20298;-69
2022/01/22 11:09:31;;;;;;;7.28;4.82;;;;;;;;;;5046760;28;21053;-69
2022/01/22 11:11:57;;;;;;;5.85;4.20;;;;;;;;;;5046863;28;20060;-69
2022/01/22 11:14:22;;;;;;;8.05;4.95;;;;;;;;;;5046023;28;20694;-69
2022/01/22 11:16:49;;;;;;;6.25;3.97;;;;;;;;;;5043525;28;20034;-69
2022/01/22 11:19:21;;;;;;;7.43;4.50;;;;;;;;;;5062577;28;20032;-69
2022/01/22 11:21:52;;;;;;;5.28;4.70;;;;;;;;;;5044106;28;20429;-70
2022/01/22 11:24:21;;;;;;;8.38;4.40;;;;;;;;;;5060497;28;20114;-70
2022/01/22 11:26:50;;;;;;;7.03;4.47;;;;;;;;;;5045758;28;20085;-70
2022/01/22 11:29:15;;;;;;;8.50;5.03;;;;;;;;;;5059911;28;20099;-69
2022/01/22 11:31:41;;;;;;;5.65;4.43;;;;;;;;;;5045008;28;20180;-69
2022/01/22 11:34:07;;;;;;;6.30;4.40;;;;;;;;;;5027793;28;20024;-69
2022/01/22 11:36:43;;;;;;;5.68;4.07;;;;;;;;;;5043163;28;20048;-70
2022/01/22 11:39:08;;;;;;;5.40;4.47;;;;;;;;;;5047773;28;20028;-69
2022/01/22 11:41:33;;;;;;;7.45;4.93;;;;;;;;;;5048419;28;20108;-69
2022/01/22 11:44:15;;;;;;;6.28;5.20;;;;;;;;;;5059705;28;20458;-69
2022/01/22 11:46:45;;;;;;;7.45;4.80;;;;;;;;;;5060477;28;20039;-69
2022/01/22 11:49:17;;;;;;;6.45;4.18;;;;;;;;;;5062109;28;20048;-70
2022/01/22 11:51:44;;;;;;;8.52;4.78;;;;;;;;;;5060215;28;20087;-69
2022/01/22 11:54:09;;;;;;;7.22;4.53;;;;;;;;;;5046754;28;20115;-69
2022/01/22 11:56:50;;;;;;;7.78;4.93;;;;;;;;;;5059398;28;20072;-70
2022/01/22 11:59:17;;;;;;;7.35;4.60;;;;;;;;;;5061407;28;20288;-69
2022/01/22 12:01:51;;;;;;;7.05;5.18;;;;;;;;;;5046620;28;20078;-69
2022/01/22 12:04:23;;;;;;;5.13;4.20;;;;;;;;;;5060958;28;20021;-69
2022/01/22 12:07:01;;;;;;;5.78;4.25;;;;;;;;;;5042465;28;20478;-70
2022/01/22 12:15:47;;;;;;;7.70;4.40;;;;;;;;;;5050445;28;20047;-69
2022/01/22 12:18:15;;;;;;;5.90;4.57;;;;;;;;;;5043272;28;20055;-69
2022/01/22 12:23:31;;;;;;;7.28;4.68;;;;;;;;;;5046821;28;20025;-69
2022/01/22 12:26:00;;;;;;;8.57;4.90;;;;;;;;;;5064145;28;20471;-69
2022/01/22 12:28:42;;;;;;;4.85;4.35;;;;;;;;;;5045769;28;20407;-69
2022/01/22 12:31:11;;;;;;;5.90;4.43;;;;;;;;;;5048892;28;20028;-69
2022/01/22 12:33:37;;;;;;;7.07;4.90;;;;;;;;;;5045958;28;20056;-69
2022/01/22 12:36:07;;;;;;;5.20;4.35;;;;;;;;;;5061597;28;20590;-69
2022/01/22 12:38:45;;;;;;;6.25;4.55;;;;;;;;;;5043024;28;20059;-69
2022/01/22 12:41:33;;;;;;;6.28;4.70;;;;;;;;;;5047558;28;20405;-69
2022/01/22 12:44:13;;;;;;;7.65;5.57;;;;;;;;;;5048789;28;20033;-69
2022/01/22 12:46:38;;;;;;;9.60;6.93;;;;;;;;;;5060026;28;20063;-69
2022/01/22 12:49:05;;;;;;;8.20;5.63;;;;;;;;;;5045997;28;20495;-69
2022/01/22 12:51:30;;;;;;;9.25;6.35;;;;;;;;;;5031166;28;20032;-70
2022/01/22 12:53:56;;;;;;;47.05;22.17;;;;;;;;;;5029754;28;20448;-69
2022/01/22 12:57:10;;;;;;;43.05;30.38;;;;;;;;;;5064935;28;20475;-70
2022/01/22 12:59:11;;;;;;;172.85;41.35;;;;;;;;;;5039510;28;20072;-69
2022/01/22 13:01:37;;;;;;;851.22;325.45;;;;;;;;;;5046911;28;20079;-69
2022/01/22 13:04:06;;;;;;;495.52;162.05;;;;;;;;;;5049008;28;20439;-69
2022/01/22 13:06:47;;;;;;;268.08;73.30;;;;;;;;;;5065275;28;20479;-69
2022/01/22 13:09:13;;;;;;;233.63;66.68;;;;;;;;;;5032492;28;20075;-69
2022/01/22 13:11:47;;;;;;;635.65;240.02;;;;;;;;;;5047221;28;20412;-69
2022/01/22 13:14:17;;;;;;;476.50;165.20;;;;;;;;;;5063982;28;20030;-69
2022/01/22 13:16:50;;;;;;;176.80;57.38;;;;;;;;;;5062618;28;20064;-69
2022/01/22 13:19:15;;;;;;;76.43;31.98;;;;;;;;;;5045730;28;20024;-69
2022/01/22 13:21:47;;;;;;;33.55;18.67;;;;;;;;;;5045604;28;20024;-69
2022/01/22 13:24:13;;;;;;;21.20;13.77;;;;;;;;;;5049619;28;20081;-69
2022/01/22 13:26:54;;;;;;;15.90;10.55;;;;;;;;;;5061827;28;20990;-69
2022/01/22 13:29:25;;;;;;;9.80;7.57;;;;;;;;;;5046626;28;20043;-69
2022/01/22 13:32:24;;;;;;;11.85;8.80;;;;;;;;;;5061157;28;20377;-69
2022/01/22 13:49:23;;;;;;;9.88;8.23;;;;;;;;;;5062395;28;20045;-69
2022/01/22 13:51:48;;;;;;;11.40;8.18;;;;;;;;;;5045179;28;20029;-69
2022/01/22 13:54:14;;;;;;;13.05;8.32;;;;;;;;;;5066717;28;20027;-69
2022/01/22 13:56:44;;;;;;;11.07;8.23;;;;;;;;;;5027386;28;20059;-69
2022/01/22 13:59:17;;;;;;;12.82;9.38;;;;;;;;;;5063017;28;20021;-69
2022/01/22 14:02:06;;;;;;;11.05;7.70;;;;;;;;;;5060553;28;20035;-69
2022/01/22 14:04:38;;;;;;;14.05;9.90;;;;;;;;;;5048579;28;20044;-68
2022/01/22 14:07:24;;;;;;;15.55;11.05;;;;;;;;;;5044449;28;20112;-68
2022/01/22 14:10:08;;;;;;;12.23;9.38;;;;;;;;;;5060774;28;20032;-68
2022/01/22 14:12:41;;;;;;;9.43;7.53;;;;;;;;;;5061789;28;20060;-69
2022/01/22 14:15:12;;;;;;;13.95;7.60;;;;;;;;;;5062736;28;20028;-68
2022/01/22 14:17:54;;;;;;;11.15;7.80;;;;;;;;;;5061692;28;20151;-69
2022/01/22 14:20:26;;;;;;;9.35;6.78;;;;;;;;;;5045720;28;20024;-69
2022/01/22 14:23:04;;;;;;;8.30;6.45;;;;;;;;;;5059816;28;20021;-69
2022/01/22 14:25:29;;;;;;;9.68;5.70;;;;;;;;;;5061110;28;20076;-68
2022/01/22 14:28:02;;;;;;;24.83;16.40;;;;;;;;;;5042727;28;20126;-69
2022/01/22 14:30:37;;;;;;;16.63;10.05;;;;;;;;;;5040298;28;20048;-69
2022/01/22 14:33:03;;;;;;;108.28;36.28;;;;;;;;;;5059524;28;20036;-69
2022/01/22 14:35:29;;;;;;;97.68;29.25;;;;;;;;;;5046021;28;20047;-69
2022/01/22 14:37:56;;;;;;;48.13;20.20;;;;;;;;;;5041453;28;20032;-69
2022/01/22 14:45:58;;;;;;;32.92;19.25;;;;;;;;;;5060885;28;20452;-68
2022/01/22 14:48:23;;;;;;;19.77;13.50;;;;;;;;;;5042861;28;20024;-68
2022/01/22 14:50:49;;;;;;;10.93;7.03;;;;;;;;;;5026010;28;20040;-69
2022/01/22 14:53:14;;;;;;;12.90;9.13;;;;;;;;;;5043121;28;20023;-68
2022/01/22 14:55:51;;;;;;;14.32;8.77;;;;;;;;;;5061555;28;20387;-68
2022/01/22 14:58:17;;;;;;;10.68;7.45;;;;;;;;;;5043021;28;20291;-68
2022/01/22 15:00:42;;;;;;;12.10;8.70;;;;;;;;;;5060452;28;20062;-69
2022/01/22 15:03:07;;;;;;;12.25;7.38;;;;;;;;;;5056852;28;20052;-68
2022/01/22 15:05:33;;;;;;;9.90;6.82;;;;;;;;;;5060903;28;20120;-69
2022/01/22 15:07:58;;;;;;;8.27;5.82;;;;;;;;;;5042905;28;20078;-68
2022/01/22 15:10:24;;;;;;;10.13;5.97;;;;;;;;;;5062244;28;20025;-71
2022/01/22 15:12:49;;;;;;;7.93;6.10;;;;;;;;;;5042295;28;20029;-70
2022/01/22 15:15:18;;;;;;;9.60;6.95;;;;;;;;;;5041612;28;20028;-71
2022/01/22 15:18:39;;;;;;;11.98;8.02;;;;;;;;;;5059290;28;20027;-71
2022/01/22 15:20:33;;;;;;;14.73;8.98;;;;;;;;;;5047219;28;20118;-70
2022/01/22 15:22:59;;;;;;;10.30;7.47;;;;;;;;;;5046030;28;20454;-71
2022/01/22 15:25:25;;;;;;;8.70;6.30;;;;;;;;;;5058648;28;20025;-71
2022/01/22 15:27:50;;;;;;;8.57;6.50;;;;;;;;;;5044644;28;20032;-70
2022/01/22 15:30:29;;;;;;;10.85;6.47;;;;;;;;;;5046643;28;20038;-71
2022/01/22 15:33:00;;;;;;;8.75;6.60;;;;;;;;;;5042874;28;20616;-71
2022/01/22 15:35:26;;;;;;;8.85;5.85;;;;;;;;;;5056867;28;20134;-72
2022/01/22 15:37:53;;;;;;;11.70;7.20;;;;;;;;;;5059549;28;20075;-70
2022/01/22 15:40:24;;;;;;;8.10;5.68;;;;;;;;;;5047440;28;20103;-72
2022/01/22 15:42:50;;;;;;;9.50;6.25;;;;;;;;;;5042621;28;20020;-72
2022/01/22 15:45:16;;;;;;;9.40;5.90;;;;;;;;;;5042816;28;20337;-71
2022/01/22 15:47:41;;;;;;;9.30;6.65;;;;;;;;;;5055522;28;20037;-71
2022/01/22 15:50:07;;;;;;;11.85;6.72;;;;;;;;;;5058311;28;20643;-71
2022/01/22 15:52:32;;;;;;;8.07;6.03;;;;;;;;;;5058565;28;20025;-72
2022/01/22 15:54:58;;;;;;;9.27;6.00;;;;;;;;;;5058390;28;20049;-71
2022/01/22 15:57:23;;;;;;;10.25;6.15;;;;;;;;;;5042382;28;20035;-73
2022/01/22 15:59:49;;;;;;;10.50;7.18;;;;;;;;;;5045844;28;20083;-72
2022/01/22 16:02:14;;;;;;;13.52;7.85;;;;;;;;;;5041112;28;20487;-70
2022/01/22 16:04:40;;;;;;;14.18;8.98;;;;;;;;;;5039787;28;20035;-71
2022/01/22 16:10:05;;;;;;;7.63;6.05;;;;;;;;;;5035470;28;20612;-71
2022/01/22 16:12:31;;;;;;;7.80;5.70;;;;;;;;;;5060025;28;20150;-71
2022/01/22 16:14:56;;;;;;;10.18;6.93;;;;;;;;;;5043623;28;20504;-71
2022/01/22 16:17:22;;;;;;;11.00;7.07;;;;;;;;;;5045460;28;20082;-70
2022/01/22 16:19:48;;;;;;;8.50;6.47;;;;;;;;;;5044408;28;20148;-73
2022/01/22 16:22:14;;;;;;;7.93;5.80;;;;;;;;;;5059911;28;20092;-71
2022/01/22 16:24:39;;;;;;;8.35;6.28;;;;;;;;;;5034698;28;20059;-70
2022/01/22 16:27:04;;;;;;;8.43;5.97;;;;;;;;;;5047494;28;20490;-69
2022/01/22 16:29:31;;;;;;;11.27;6.95;;;;;;;;;;5033726;28;20566;-69
2022/01/22 16:31:56;;;;;;;9.95;7.15;;;;;;;;;;5047398;28;20032;-69
2022/01/22 16:34:22;;;;;;;10.07;6.90;;;;;;;;;;5045263;28;20051;-69
2022/01/22 16:36:47;;;;;;;9.80;6.68;;;;;;;;;;5064800;28;20016;-69
2022/01/22 16:39:12;;;;;;;10.27;7.38;;;;;;;;;;5062805;28;20027;-69
2022/01/22 16:41:38;;;;;;;10.18;7.28;;;;;;;;;;5033697;28;20024;-69
2022/01/22 16:44:45;;;;;;;11.20;8.30;;;;;;;;;;5050453;28;20086;-69